Airport View

Enter AWOS ICAO identifier for current METAR.

ex. KFNL

KFYG 261140Z AUTO 13004KT 9SM FEW044 22/22 A3006 RMK AO2

26 Jun 2019 11:54

Frequency: 121.325

Phone: 636-433-5914

Other Area AWOS: KSUS - KSTL - KSET - KCPS

TAF KSUS 260520Z 2606/2706 20004KT P6SM SCT250 FM261700 20007KT P6SM SCT040 FM270100 18003KT P6SM SCT250